METAR Data
IDs: Format: Raw Decoded Include TAF

Data at: 1707 UTC 03 Jul 2020

METAR for:KOSU (Columbus/Ohio State, OH, US)
Text:KOSU 031653Z 32007KT 10SM CLR 31/16 A3004 RMK AO2 SLP162 T03060161
Temperature: 30.6°C ( 87°F)
Dewpoint: 16.1°C ( 61°F) [RH = 42%]
Pressure (altimeter):30.04 inches Hg (1017.4 mb) [Sea level pressure: 1016.2 mb]
Winds:from the NW (320 degrees) at 8 MPH (7 knots; 3.6 m/s)
Visibility:10 or more sm (16+ km)
Ceiling:at least 12,000 feet AGL
Clouds:sky clear below 12,000 feet AGL